createdAt,value
2022-11-27T00:02:35.311Z,12.2
2022-11-27T00:05:25.554Z,10.8
2022-11-27T00:08:13.425Z,10.5
2022-11-27T00:11:00.925Z,12.3
2022-11-27T00:13:52.466Z,12
2022-11-27T00:16:40.903Z,10.7
2022-11-27T00:19:28.597Z,10.4
2022-11-27T00:22:16.339Z,12.2
2022-11-27T00:25:04.050Z,12.1
2022-11-27T00:27:52.660Z,10.8
2022-11-27T00:30:40.206Z,10.5
2022-11-27T00:33:27.787Z,12.1
2022-11-27T00:36:15.417Z,12.2
2022-11-27T00:39:02.974Z,10.9
2022-11-27T00:41:51.575Z,10.4
2022-11-27T00:44:39.814Z,11.8
2022-11-27T00:47:27.653Z,12.2
2022-11-27T00:50:15.187Z,11
2022-11-27T00:53:02.932Z,10.2
2022-11-27T00:55:50.410Z,11.6
2022-11-27T00:58:37.937Z,12.7
2022-11-27T01:01:25.518Z,11.6
2022-11-27T01:04:16.006Z,10.3
2022-11-27T01:07:03.669Z,10.8
2022-11-27T01:09:51.352Z,12.4
2022-11-27T01:12:38.982Z,12
2022-11-27T01:15:27.044Z,10.7
2022-11-27T01:18:14.835Z,10.9
2022-11-27T01:21:02.265Z,12.4
2022-11-27T01:23:51.162Z,12.1
2022-11-27T01:26:39.795Z,10.7
2022-11-27T01:29:27.769Z,10.8
2022-11-27T01:32:15.362Z,12.1
2022-11-27T01:35:02.880Z,11.9
2022-11-27T01:37:51.188Z,10.7
2022-11-27T01:40:38.709Z,10.6
2022-11-27T01:43:26.261Z,11.8
2022-11-27T01:46:23.745Z,12.7
2022-11-27T01:49:19.596Z,11.5
2022-11-27T01:52:14.798Z,10.2
2022-11-27T01:55:07.304Z,11.4
2022-11-27T01:58:03.535Z,12.6
2022-11-27T02:00:55.479Z,11.5
2022-11-27T02:03:43.775Z,10.3
2022-11-27T02:06:31.412Z,11.1
2022-11-27T02:09:19.134Z,12.2
2022-11-27T02:12:06.972Z,11.7
2022-11-27T02:15:09.507Z,10.4
2022-11-27T02:18:07.889Z,10.8
2022-11-27T02:21:03.296Z,12
2022-11-27T02:23:59.125Z,11.9
2022-11-27T02:27:18.278Z,10.5
2022-11-27T02:30:24.372Z,10.7
2022-11-27T02:33:14.863Z,11.4
2022-11-27T02:36:06.236Z,12.1
2022-11-27T02:38:59.138Z,12.1
2022-11-27T02:41:54.023Z,10.8
2022-11-27T02:44:48.736Z,10.6
2022-11-27T02:47:40.962Z,11.4
2022-11-27T02:50:31.381Z,12.1
2022-11-27T02:53:24.025Z,11.7
2022-11-27T02:56:17.260Z,10.5
2022-11-27T02:59:08.343Z,10.7
2022-11-27T03:01:59.512Z,11.4
2022-11-27T03:04:52.827Z,11.7
2022-11-27T03:07:45.846Z,12.5
2022-11-27T03:10:39.085Z,11.4
2022-11-27T03:13:33.547Z,10.5
2022-11-27T03:16:25.362Z,11.1
2022-11-27T03:19:20.975Z,11.7
2022-11-27T03:22:11.430Z,12.2
2022-11-27T03:24:59.658Z,11.5
2022-11-27T03:27:47.267Z,10.5
2022-11-27T03:30:41.250Z,10.6
2022-11-27T03:33:28.786Z,10.9
2022-11-27T03:36:16.438Z,11.1
2022-11-27T03:39:05.800Z,11.1
2022-11-27T03:41:53.680Z,11.3
2022-11-27T03:44:51.809Z,11.2
2022-11-27T03:47:48.294Z,11.2
2022-11-27T03:50:47.485Z,12.3
2022-11-27T03:53:46.403Z,12.2
2022-11-27T03:56:44.250Z,10.9
2022-11-27T03:59:40.908Z,11
2022-11-27T04:02:32.543Z,12.1
2022-11-27T04:05:27.936Z,12.9
2022-11-27T04:08:16.126Z,11.7
2022-11-27T04:11:03.880Z,10.6
2022-11-27T04:13:51.488Z,12.2
2022-11-27T04:16:39.112Z,13
2022-11-27T04:19:27.217Z,11.8
2022-11-27T04:22:14.896Z,10.7
2022-11-27T04:25:02.562Z,12.2
2022-11-27T04:27:51.127Z,12.8
2022-11-27T04:30:38.853Z,11.6
2022-11-27T04:33:26.464Z,10.7
2022-11-27T04:36:14.358Z,12.4
2022-11-27T04:39:02.033Z,12.6
2022-11-27T04:41:49.587Z,11.3
2022-11-27T04:44:37.548Z,10.9
2022-11-27T04:47:25.300Z,13
2022-11-27T04:50:13.413Z,12.8
2022-11-27T04:53:01.405Z,11.4
2022-11-27T04:55:49.225Z,10.8
2022-11-27T04:58:37.143Z,12.9
2022-11-27T05:01:24.732Z,12.9
2022-11-27T05:04:12.352Z,11.6
2022-11-27T05:07:00.888Z,10.8
2022-11-27T05:09:48.581Z,12.8
2022-11-27T05:12:36.175Z,12.8
2022-11-27T05:15:23.696Z,11.4
2022-11-27T05:18:11.200Z,10.9
2022-11-27T05:20:58.992Z,12.7
2022-11-27T05:23:49.341Z,12.6
2022-11-27T05:26:36.868Z,11.3
2022-11-27T05:29:25.552Z,11
2022-11-27T05:32:13.888Z,12.4
2022-11-27T05:35:01.577Z,12.7
2022-11-27T05:37:49.846Z,11.5
2022-11-27T05:40:37.417Z,11
2022-11-27T05:43:25.289Z,12.3
2022-11-27T05:46:13.095Z,12.7
2022-11-27T05:49:03.764Z,11.5
2022-11-27T05:51:51.886Z,10.8
2022-11-27T05:54:39.826Z,12.4
2022-11-27T05:57:27.842Z,12.8
2022-11-27T06:00:15.623Z,11.6
2022-11-27T06:03:03.817Z,10.8
2022-11-27T06:05:51.498Z,12.4
2022-11-27T06:08:39.401Z,12.7
2022-11-27T06:11:28.067Z,11.4
2022-11-27T06:14:15.646Z,10.8
2022-11-27T06:17:03.201Z,12.1
2022-11-27T06:19:50.783Z,12.9
2022-11-27T06:22:38.413Z,11.7
2022-11-27T06:25:26.291Z,10.7
2022-11-27T06:28:14.261Z,11.9
2022-11-27T06:31:01.758Z,13
2022-11-27T06:33:51.957Z,12
2022-11-27T06:36:41.456Z,10.7
2022-11-27T06:39:29.058Z,11.5
2022-11-27T06:42:16.674Z,12.7
2022-11-27T06:45:04.266Z,12.2
2022-11-27T06:47:52.944Z,10.9
2022-11-27T06:50:40.461Z,10.9
2022-11-27T06:53:28.136Z,12
2022-11-27T06:56:17.035Z,12.6
2022-11-27T06:59:06.841Z,11.9
2022-11-27T07:01:59.246Z,10.8
2022-11-27T07:04:46.890Z,11.6
2022-11-27T07:07:35.010Z,12.3
2022-11-27T07:10:23.613Z,12.7
2022-11-27T07:13:11.108Z,11.7
2022-11-27T07:15:58.845Z,10.9
2022-11-27T07:18:47.143Z,11.2
2022-11-27T07:21:36.395Z,12.3
2022-11-27T07:24:24.935Z,12.8
2022-11-27T07:27:12.584Z,12
2022-11-27T07:30:00.100Z,10.9
2022-11-27T07:32:48.126Z,11
2022-11-27T07:35:35.613Z,11.9
2022-11-27T07:38:23.158Z,12.6
2022-11-27T07:41:11.127Z,12.4
2022-11-27T07:43:59.959Z,11.3
2022-11-27T07:46:49.479Z,11.2
2022-11-27T07:49:37.069Z,12.3
2022-11-27T07:52:24.803Z,13.3
2022-11-27T07:55:12.575Z,12.3
2022-11-27T07:58:00.342Z,11.1
2022-11-27T08:00:47.905Z,11.8
2022-11-27T08:03:35.538Z,13
2022-11-27T08:06:23.136Z,12.6
2022-11-27T08:09:12.117Z,11.4
2022-11-27T08:11:59.654Z,11.6
2022-11-27T08:14:47.457Z,12.4
2022-11-27T08:17:35.065Z,12.6
2022-11-27T08:20:22.831Z,12.8
2022-11-27T08:23:10.575Z,13.1
2022-11-27T08:25:58.375Z,12.2
2022-11-27T08:28:49.366Z,11.2
2022-11-27T08:31:38.086Z,11.4
2022-11-27T08:34:25.672Z,12.1
2022-11-27T08:37:13.472Z,12.4
2022-11-27T08:40:00.999Z,12.8
2022-11-27T08:42:50.626Z,13.2
2022-11-27T08:45:38.302Z,12.5
2022-11-27T08:48:25.873Z,11.6
2022-11-27T08:51:13.898Z,11.9
2022-11-27T08:54:01.611Z,12.4
2022-11-27T08:56:49.602Z,12.6
2022-11-27T08:59:37.344Z,12.8
2022-11-27T09:02:24.941Z,12.7
2022-11-27T09:05:13.015Z,12.4
2022-11-27T09:08:00.832Z,12.4
2022-11-27T09:10:50.067Z,12.5
2022-11-27T09:13:37.545Z,12.3
2022-11-27T09:16:25.161Z,12.6
2022-11-27T09:19:14.744Z,12.7
2022-11-27T09:22:02.781Z,12.9
2022-11-27T09:24:50.467Z,12.9
2022-11-27T09:27:38.165Z,13.6
2022-11-27T09:30:25.831Z,13.1
2022-11-27T09:33:14.275Z,11.8
2022-11-27T09:36:01.878Z,12.1
2022-11-27T09:38:51.128Z,12.9
2022-11-27T09:41:39.975Z,13.2
2022-11-27T09:44:32.142Z,13.2
2022-11-27T09:47:25.156Z,13
2022-11-27T09:50:20.583Z,12.9
2022-11-27T09:53:12.680Z,12.8
2022-11-27T09:56:09.714Z,13
2022-11-27T09:59:01.458Z,13.4
2022-11-27T10:01:57.465Z,12.4
2022-11-27T10:05:12.147Z,11.8
2022-11-27T10:08:07.195Z,12.6
2022-11-27T10:11:08.934Z,13.1
2022-11-27T10:14:05.749Z,13.1
2022-11-27T10:17:09.228Z,13.1
2022-11-27T10:20:02.710Z,13
2022-11-27T10:23:03.987Z,12.9
2022-11-27T10:26:01.010Z,12.7
2022-11-27T10:28:57.298Z,12.5
2022-11-27T10:31:56.683Z,12.5
2022-11-27T10:34:47.016Z,12.4
2022-11-27T10:37:40.631Z,12.4
2022-11-27T10:40:33.657Z,12.4
2022-11-27T10:43:27.879Z,12.4
2022-11-27T10:46:15.641Z,12.3
2022-11-27T10:49:10.496Z,12.5
2022-11-27T10:51:58.152Z,12.5
2022-11-27T10:54:45.750Z,12.9
2022-11-27T10:57:40.428Z,13.1
2022-11-27T11:00:38.543Z,13.1
2022-11-27T11:03:26.097Z,12.9
2022-11-27T11:06:21.856Z,12.9
2022-11-27T11:09:11.884Z,13.3
2022-11-27T11:12:01.882Z,12.7
2022-11-27T11:14:53.635Z,11.5
2022-11-27T11:17:43.613Z,11.7
2022-11-27T11:20:31.164Z,12.4
2022-11-27T11:23:19.027Z,13
2022-11-27T11:26:13.289Z,13.2
2022-11-27T11:29:11.531Z,12
2022-11-27T11:32:16.442Z,11.4
2022-11-27T11:35:09.257Z,12.7
2022-11-27T11:38:11.325Z,13.6
2022-11-27T11:41:02.981Z,12.4
2022-11-27T11:43:52.259Z,11.4
2022-11-27T11:46:43.644Z,12.3
2022-11-27T11:49:37.916Z,13.8
2022-11-27T11:52:25.557Z,12.9
2022-11-27T11:55:26.710Z,11.7
2022-11-27T11:58:20.883Z,11.7
2022-11-27T12:01:27.671Z,13.5
2022-11-27T12:04:39.227Z,12.9
2022-11-27T12:07:52.401Z,11.7
2022-11-27T12:10:58.821Z,12.3
2022-11-27T12:13:56.258Z,13.8
2022-11-27T12:16:58.938Z,12.9
2022-11-27T12:19:58.355Z,11.8
2022-11-27T12:22:59.858Z,12.4
2022-11-27T12:26:07.682Z,13.7
2022-11-27T12:29:05.084Z,12.7
2022-11-27T12:32:33.774Z,11.5
2022-11-27T12:35:42.889Z,13.1
2022-11-27T12:38:42.423Z,13.9
2022-11-27T12:41:46.137Z,12.7
2022-11-27T12:44:45.880Z,11.6
2022-11-27T12:47:41.922Z,12.3
2022-11-27T12:50:32.966Z,13.7
2022-11-27T12:53:26.762Z,12.8
2022-11-27T12:56:24.149Z,11.7
2022-11-27T12:59:15.983Z,11.3
2022-11-27T13:02:10.329Z,13.1
2022-11-27T13:05:13.385Z,13.2
2022-11-27T13:08:05.047Z,12.1
2022-11-27T13:10:59.364Z,11.3
2022-11-27T13:13:52.055Z,12.9
2022-11-27T13:16:46.451Z,13.4
2022-11-27T13:19:38.538Z,12.4
2022-11-27T13:22:29.546Z,11.4
2022-11-27T13:25:20.824Z,12.4
2022-11-27T13:28:08.638Z,13.8
2022-11-27T13:31:07.916Z,12.8
2022-11-27T13:34:04.342Z,11.7
2022-11-27T13:36:57.519Z,11.5
2022-11-27T13:39:48.355Z,13.4
2022-11-27T13:42:43.465Z,13.4
2022-11-27T13:45:35.187Z,12.3
2022-11-27T13:48:22.937Z,11.2
2022-11-27T13:51:18.014Z,11.9
2022-11-27T13:54:12.488Z,13.6
2022-11-27T13:57:02.868Z,12.8
2022-11-27T14:00:01.572Z,11.7
2022-11-27T14:02:53.513Z,11.3
2022-11-27T14:05:41.503Z,13.2
2022-11-27T14:08:30.867Z,13
2022-11-27T14:11:20.497Z,11.9
2022-11-27T14:14:21.678Z,11
2022-11-27T14:17:12.334Z,12.1
2022-11-27T14:20:12.267Z,12.9
2022-11-27T14:23:14.320Z,12.2
2022-11-27T14:26:15.201Z,11
2022-11-27T14:29:07.732Z,11.1
2022-11-27T14:31:56.774Z,11.9
2022-11-27T14:34:46.407Z,12.6
2022-11-27T14:37:34.343Z,12.2
2022-11-27T14:40:22.242Z,11.2
2022-11-27T14:43:12.332Z,11
2022-11-27T14:46:08.573Z,11.9
2022-11-27T14:49:01.328Z,12.6
2022-11-27T14:51:49.055Z,12.3
2022-11-27T14:54:37.880Z,11.2
2022-11-27T14:57:26.442Z,11
2022-11-27T15:00:15.571Z,11.6
2022-11-27T15:03:09.083Z,12.3
2022-11-27T15:06:02.698Z,11.8
2022-11-27T15:09:15.796Z,10.8
2022-11-27T15:12:15.215Z,11.1
2022-11-27T15:15:06.294Z,13
2022-11-27T15:18:03.674Z,12.7
2022-11-27T15:20:54.266Z,11.5
2022-11-27T15:23:44.324Z,10.9
2022-11-27T15:26:34.335Z,12.7
2022-11-27T15:29:25.136Z,12.7
2022-11-27T15:32:23.682Z,11.4
2022-11-27T15:35:19.210Z,11.1
2022-11-27T15:38:09.786Z,13
2022-11-27T15:41:02.619Z,12.8
2022-11-27T15:43:50.430Z,11.6
2022-11-27T15:46:39.075Z,10.8
2022-11-27T15:49:27.804Z,12.3
2022-11-27T15:52:15.938Z,13
2022-11-27T15:55:03.646Z,11.9
2022-11-27T15:57:52.574Z,10.9
2022-11-27T16:00:40.204Z,11.7
2022-11-27T16:03:28.355Z,13.1
2022-11-27T16:06:15.988Z,12.3
2022-11-27T16:09:05.466Z,11.1
2022-11-27T16:11:53.339Z,11.6
2022-11-27T16:14:42.033Z,13.2
2022-11-27T16:17:29.882Z,12.4
2022-11-27T16:20:17.544Z,11.2
2022-11-27T16:23:05.393Z,10.9
2022-11-27T16:25:53.030Z,12.6
2022-11-27T16:28:40.640Z,12.6
2022-11-27T16:31:28.453Z,11.5
2022-11-27T16:34:16.313Z,11
2022-11-27T16:37:04.199Z,12.6
2022-11-27T16:39:51.899Z,12.6
2022-11-27T16:42:39.413Z,11.4
2022-11-27T16:45:27.203Z,10.7
2022-11-27T16:48:15.544Z,12.1
2022-11-27T16:51:03.165Z,12.7
2022-11-27T16:53:52.824Z,11.6
2022-11-27T16:56:42.540Z,10.5
2022-11-27T16:59:30.205Z,11.5
2022-11-27T17:02:18.074Z,12.7
2022-11-27T17:05:05.749Z,11.9
2022-11-27T17:07:54.210Z,10.7
2022-11-27T17:10:41.789Z,11.2
2022-11-27T17:13:30.147Z,12.7
2022-11-27T17:16:17.717Z,12.1
2022-11-27T17:19:05.428Z,10.8
2022-11-27T17:21:54.370Z,11
2022-11-27T17:24:41.949Z,12.5
2022-11-27T17:27:29.704Z,12.2
2022-11-27T17:30:18.804Z,11
2022-11-27T17:33:06.419Z,10.7
2022-11-27T17:35:53.996Z,12.3
2022-11-27T17:38:42.631Z,12.4
2022-11-27T17:41:30.172Z,11.2
2022-11-27T17:44:18.654Z,10.6
2022-11-27T17:47:06.454Z,12.1
2022-11-27T17:49:54.268Z,12.8
2022-11-27T17:52:41.843Z,11.7
2022-11-27T17:55:29.388Z,10.6
2022-11-27T17:58:17.939Z,11.5
2022-11-27T18:01:05.609Z,12.9
2022-11-27T18:03:59.479Z,12.2
2022-11-27T18:06:48.995Z,11
2022-11-27T18:09:36.657Z,10.9
2022-11-27T18:12:24.378Z,12.8
2022-11-27T18:15:12.032Z,12.6
2022-11-27T18:17:59.630Z,11.4
2022-11-27T18:20:47.385Z,10.7
2022-11-27T18:23:35.793Z,12.1
2022-11-27T18:26:45.557Z,12.8
2022-11-27T18:29:41.712Z,11.5
2022-11-27T18:32:31.623Z,10.6
2022-11-27T18:35:21.273Z,11.7
2022-11-27T18:38:09.032Z,12.8
2022-11-27T18:40:57.124Z,11.9
2022-11-27T18:43:51.969Z,10.7
2022-11-27T18:46:39.838Z,11.2
2022-11-27T18:49:27.907Z,12.9
2022-11-27T18:52:15.635Z,12.5
2022-11-27T18:55:03.341Z,11.2
2022-11-27T18:57:52.058Z,10.5
2022-11-27T19:00:39.822Z,12.1
2022-11-27T19:03:29.249Z,12.7
2022-11-27T19:06:16.861Z,11.5
2022-11-27T19:09:06.443Z,10.5
2022-11-27T19:11:55.981Z,11.5
2022-11-27T19:14:44.131Z,12.8
2022-11-27T19:17:33.225Z,12
2022-11-27T19:20:21.688Z,10.7
2022-11-27T19:23:09.567Z,10.7
2022-11-27T19:25:57.139Z,11.3
2022-11-27T19:28:50.010Z,12.2
2022-11-27T19:31:39.492Z,11.9
2022-11-27T19:34:27.404Z,10.7
2022-11-27T19:37:21.370Z,10.6
2022-11-27T19:40:21.837Z,11.3
2022-11-27T19:43:11.405Z,11.7
2022-11-27T19:45:59.720Z,11.8
2022-11-27T19:48:47.455Z,10.7
2022-11-27T19:51:36.176Z,10.2
2022-11-27T19:54:24.411Z,10.8
2022-11-27T19:57:12.006Z,12.2
2022-11-27T19:59:59.580Z,12
2022-11-27T20:02:48.482Z,10.7
2022-11-27T20:05:36.803Z,10.2
2022-11-27T20:08:25.245Z,11.9
2022-11-27T20:11:12.905Z,11.8
2022-11-27T20:14:02.916Z,10.6
2022-11-27T20:16:51.412Z,10.1
2022-11-27T20:19:39.559Z,11.5
2022-11-27T20:22:27.380Z,11.4
2022-11-27T20:25:20.214Z,10.2
2022-11-27T20:28:10.383Z,10.1
2022-11-27T20:30:58.045Z,10.7
2022-11-27T20:33:47.627Z,11.3
2022-11-27T20:36:35.532Z,10.8
2022-11-27T20:39:25.110Z,9.7
2022-11-27T20:42:13.205Z,9.7
2022-11-27T20:45:01.364Z,10.3
2022-11-27T20:47:50.317Z,10.8
2022-11-27T20:50:38.063Z,11
2022-11-27T20:53:25.762Z,9.8
2022-11-27T20:56:13.566Z,9
2022-11-27T20:59:04.143Z,9.5
2022-11-27T21:01:52.477Z,10.1
2022-11-27T21:04:40.141Z,10.5
2022-11-27T21:07:28.468Z,10.7
2022-11-27T21:10:16.033Z,10
2022-11-27T21:13:04.745Z,9.2
2022-11-27T21:15:52.261Z,9.6
2022-11-27T21:18:39.862Z,9.9
2022-11-27T21:21:27.384Z,10
2022-11-27T21:24:16.259Z,10.3
2022-11-27T21:27:05.162Z,10.4
2022-11-27T21:29:52.779Z,10.3
2022-11-27T21:32:40.390Z,10.2
2022-11-27T21:35:32.226Z,10.4
2022-11-27T21:38:21.806Z,11
2022-11-27T21:41:09.418Z,10.2
2022-11-27T21:43:58.430Z,9.1
2022-11-27T21:46:47.587Z,9.7
2022-11-27T21:49:36.610Z,10.7
2022-11-27T21:52:24.411Z,11.3
2022-11-27T21:55:12.438Z,10.4
2022-11-27T21:58:00.087Z,9.2
2022-11-27T22:00:47.783Z,9.4
2022-11-27T22:03:41.055Z,10.3
2022-11-27T22:06:31.835Z,10.9
2022-11-27T22:09:23.134Z,10.1
2022-11-27T22:12:12.088Z,9
2022-11-27T22:15:04.591Z,8.7
2022-11-27T22:17:53.071Z,9.2
2022-11-27T22:20:40.676Z,9.4
2022-11-27T22:23:28.702Z,9.4
2022-11-27T22:26:16.354Z,9.4
2022-11-27T22:29:06.137Z,9.4
2022-11-27T22:31:53.777Z,9.4
2022-11-27T22:34:41.830Z,9.4
2022-11-27T22:37:29.495Z,9.3
2022-11-27T22:40:17.138Z,9.2
2022-11-27T22:43:05.379Z,9.1
2022-11-27T22:45:53.305Z,9.1
2022-11-27T22:48:41.222Z,9
2022-11-27T22:51:29.916Z,9
2022-11-27T22:54:20.196Z,8.9
2022-11-27T22:57:09.120Z,8.8
2022-11-27T22:59:58.542Z,8.8
2022-11-27T23:02:46.337Z,8.7
2022-11-27T23:05:34.048Z,8.7
2022-11-27T23:08:21.908Z,8.6
2022-11-27T23:11:09.564Z,8.7
2022-11-27T23:14:00.306Z,8.6
2022-11-27T23:16:48.156Z,8.6
2022-11-27T23:19:35.891Z,8.4
2022-11-27T23:22:23.369Z,8.4
2022-11-27T23:25:10.888Z,8.3
2022-11-27T23:27:58.421Z,8.3
2022-11-27T23:30:45.996Z,8.1
2022-11-27T23:33:33.664Z,8
2022-11-27T23:36:22.416Z,8
2022-11-27T23:39:10.116Z,8
2022-11-27T23:41:58.793Z,8
2022-11-27T23:44:46.444Z,8.1
2022-11-27T23:47:34.028Z,8.4
2022-11-27T23:50:21.857Z,8.3
2022-11-27T23:53:09.951Z,8.2
2022-11-27T23:55:57.634Z,8.1
2022-11-27T23:58:47.850Z,8
